sensor_id;sensor_type;location;lat;lon;timestamp;P1;durP1;ratioP1;P2;durP2;ratioP2
13743;SDS011;6943;52.368;9.966;2024-02-21T00:01:53;19.90;;;11.23;;
13743;SDS011;6943;52.368;9.966;2024-02-21T00:04:19;14.27;;;10.37;;
13743;SDS011;6943;52.368;9.966;2024-02-21T00:06:45;20.10;;;11.57;;
13743;SDS011;6943;52.368;9.966;2024-02-21T00:09:11;15.30;;;11.37;;
13743;SDS011;6943;52.368;9.966;2024-02-21T00:11:37;19.37;;;11.27;;
13743;SDS011;6943;52.368;9.966;2024-02-21T00:14:02;21.87;;;11.40;;
13743;SDS011;6943;52.368;9.966;2024-02-21T00:16:28;19.70;;;11.47;;
13743;SDS011;6943;52.368;9.966;2024-02-21T00:18:54;15.50;;;11.07;;
13743;SDS011;6943;52.368;9.966;2024-02-21T00:21:20;22.43;;;12.40;;
13743;SDS011;6943;52.368;9.966;2024-02-21T00:23:47;20.87;;;12.47;;
13743;SDS011;6943;52.368;9.966;2024-02-21T00:26:15;19.80;;;12.40;;
13743;SDS011;6943;52.368;9.966;2024-02-21T00:28:41;21.40;;;12.53;;
13743;SDS011;6943;52.368;9.966;2024-02-21T00:31:07;20.43;;;12.43;;
13743;SDS011;6943;52.368;9.966;2024-02-21T00:33:33;21.10;;;12.70;;
13743;SDS011;6943;52.368;9.966;2024-02-21T00:35:58;24.87;;;13.37;;
13743;SDS011;6943;52.368;9.966;2024-02-21T00:38:24;23.00;;;13.57;;
13743;SDS011;6943;52.368;9.966;2024-02-21T00:40:50;23.33;;;12.37;;
13743;SDS011;6943;52.368;9.966;2024-02-21T00:43:16;22.53;;;13.17;;
13743;SDS011;6943;52.368;9.966;2024-02-21T00:45:42;23.40;;;13.87;;
13743;SDS011;6943;52.368;9.966;2024-02-21T00:48:08;23.37;;;12.40;;
13743;SDS011;6943;52.368;9.966;2024-02-21T00:50:34;17.30;;;12.07;;
13743;SDS011;6943;52.368;9.966;2024-02-21T00:53:00;22.50;;;12.97;;
13743;SDS011;6943;52.368;9.966;2024-02-21T00:55:26;18.70;;;12.77;;
13743;SDS011;6943;52.368;9.966;2024-02-21T00:57:52;23.87;;;13.17;;
13743;SDS011;6943;52.368;9.966;2024-02-21T01:00:18;20.97;;;13.30;;
13743;SDS011;6943;52.368;9.966;2024-02-21T01:02:44;22.20;;;13.83;;
13743;SDS011;6943;52.368;9.966;2024-02-21T01:05:10;21.13;;;14.40;;
13743;SDS011;6943;52.368;9.966;2024-02-21T01:07:36;22.33;;;13.87;;
13743;SDS011;6943;52.368;9.966;2024-02-21T01:10:01;21.60;;;14.10;;
13743;SDS011;6943;52.368;9.966;2024-02-21T01:12:27;25.93;;;14.13;;
13743;SDS011;6943;52.368;9.966;2024-02-21T01:14:53;26.03;;;14.63;;
13743;SDS011;6943;52.368;9.966;2024-02-21T01:17:19;23.97;;;15.27;;
13743;SDS011;6943;52.368;9.966;2024-02-21T01:19:46;27.93;;;15.33;;
13743;SDS011;6943;52.368;9.966;2024-02-21T01:22:12;23.50;;;14.33;;
13743;SDS011;6943;52.368;9.966;2024-02-21T01:24:39;19.63;;;13.67;;
13743;SDS011;6943;52.368;9.966;2024-02-21T01:27:05;23.70;;;13.40;;
13743;SDS011;6943;52.368;9.966;2024-02-21T01:29:31;23.23;;;14.73;;
13743;SDS011;6943;52.368;9.966;2024-02-21T01:31:57;22.90;;;13.50;;
13743;SDS011;6943;52.368;9.966;2024-02-21T01:34:23;24.20;;;13.67;;
13743;SDS011;6943;52.368;9.966;2024-02-21T01:36:49;24.50;;;14.37;;
13743;SDS011;6943;52.368;9.966;2024-02-21T01:39:16;24.93;;;14.13;;
13743;SDS011;6943;52.368;9.966;2024-02-21T01:41:42;23.83;;;14.27;;
13743;SDS011;6943;52.368;9.966;2024-02-21T01:44:08;21.67;;;13.27;;
13743;SDS011;6943;52.368;9.966;2024-02-21T01:46:34;22.50;;;13.67;;
13743;SDS011;6943;52.368;9.966;2024-02-21T01:49:00;21.33;;;12.27;;
13743;SDS011;6943;52.368;9.966;2024-02-21T01:51:26;22.73;;;14.60;;
13743;SDS011;6943;52.368;9.966;2024-02-21T01:53:53;23.47;;;13.97;;
13743;SDS011;6943;52.368;9.966;2024-02-21T01:56:19;21.27;;;13.40;;
13743;SDS011;6943;52.368;9.966;2024-02-21T01:58:45;22.13;;;13.87;;
13743;SDS011;6943;52.368;9.966;2024-02-21T02:01:11;22.13;;;13.60;;
13743;SDS011;6943;52.368;9.966;2024-02-21T02:03:37;24.40;;;14.13;;
13743;SDS011;6943;52.368;9.966;2024-02-21T02:06:04;19.83;;;13.57;;
13743;SDS011;6943;52.368;9.966;2024-02-21T02:08:31;21.53;;;13.00;;
13743;SDS011;6943;52.368;9.966;2024-02-21T02:10:58;19.40;;;12.97;;
13743;SDS011;6943;52.368;9.966;2024-02-21T02:13:24;20.53;;;13.13;;
13743;SDS011;6943;52.368;9.966;2024-02-21T02:15:50;21.13;;;13.50;;
13743;SDS011;6943;52.368;9.966;2024-02-21T02:18:17;22.53;;;13.23;;
13743;SDS011;6943;52.368;9.966;2024-02-21T02:20:43;25.43;;;14.70;;
13743;SDS011;6943;52.368;9.966;2024-02-21T02:23:10;22.20;;;13.50;;
13743;SDS011;6943;52.368;9.966;2024-02-21T02:25:36;22.63;;;13.97;;
13743;SDS011;6943;52.368;9.966;2024-02-21T02:28:06;24.97;;;13.97;;
13743;SDS011;6943;52.368;9.966;2024-02-21T02:30:33;20.70;;;13.90;;
13743;SDS011;6943;52.368;9.966;2024-02-21T02:32:59;22.73;;;13.37;;
13743;SDS011;6943;52.368;9.966;2024-02-21T02:35:25;18.00;;;12.97;;
13743;SDS011;6943;52.368;9.966;2024-02-21T02:37:51;23.90;;;13.17;;
13743;SDS011;6943;52.368;9.966;2024-02-21T02:40:20;24.33;;;13.33;;
13743;SDS011;6943;52.368;9.966;2024-02-21T02:42:46;22.43;;;13.13;;
13743;SDS011;6943;52.368;9.966;2024-02-21T02:45:13;23.70;;;12.97;;
13743;SDS011;6943;52.368;9.966;2024-02-21T02:47:39;17.80;;;13.83;;
13743;SDS011;6943;52.368;9.966;2024-02-21T02:50:06;19.10;;;13.93;;
13743;SDS011;6943;52.368;9.966;2024-02-21T02:52:32;21.23;;;14.50;;
13743;SDS011;6943;52.368;9.966;2024-02-21T02:54:58;23.53;;;14.10;;
13743;SDS011;6943;52.368;9.966;2024-02-21T02:57:24;20.70;;;13.13;;
13743;SDS011;6943;52.368;9.966;2024-02-21T02:59:50;21.83;;;13.63;;
13743;SDS011;6943;52.368;9.966;2024-02-21T03:02:16;21.03;;;13.60;;
13743;SDS011;6943;52.368;9.966;2024-02-21T03:04:43;21.90;;;14.80;;
13743;SDS011;6943;52.368;9.966;2024-02-21T03:07:08;23.43;;;13.87;;
13743;SDS011;6943;52.368;9.966;2024-02-21T03:09:36;22.80;;;14.20;;
13743;SDS011;6943;52.368;9.966;2024-02-21T03:12:02;19.17;;;12.80;;
13743;SDS011;6943;52.368;9.966;2024-02-21T03:14:28;22.33;;;13.87;;
13743;SDS011;6943;52.368;9.966;2024-02-21T03:16:54;19.33;;;12.93;;
13743;SDS011;6943;52.368;9.966;2024-02-21T03:19:20;20.73;;;14.13;;
13743;SDS011;6943;52.368;9.966;2024-02-21T03:21:47;22.50;;;13.27;;
13743;SDS011;6943;52.368;9.966;2024-02-21T03:24:13;22.33;;;14.13;;
13743;SDS011;6943;52.368;9.966;2024-02-21T03:26:39;19.47;;;13.40;;
13743;SDS011;6943;52.368;9.966;2024-02-21T03:29:05;21.77;;;14.23;;
13743;SDS011;6943;52.368;9.966;2024-02-21T03:31:31;21.47;;;13.23;;
13743;SDS011;6943;52.368;9.966;2024-02-21T03:33:57;22.30;;;14.00;;
13743;SDS011;6943;52.368;9.966;2024-02-21T03:36:23;23.20;;;13.95;;
13743;SDS011;6943;52.368;9.966;2024-02-21T03:38:49;23.07;;;12.97;;
13743;SDS011;6943;52.368;9.966;2024-02-21T03:41:15;20.40;;;13.47;;
13743;SDS011;6943;52.368;9.966;2024-02-21T03:43:40;18.90;;;12.80;;
13743;SDS011;6943;52.368;9.966;2024-02-21T03:46:06;21.03;;;13.20;;
13743;SDS011;6943;52.368;9.966;2024-02-21T03:48:32;17.50;;;12.70;;
13743;SDS011;6943;52.368;9.966;2024-02-21T03:50:58;21.00;;;13.90;;
13743;SDS011;6943;52.368;9.966;2024-02-21T03:53:24;25.13;;;13.73;;
13743;SDS011;6943;52.368;9.966;2024-02-21T03:55:50;22.07;;;13.63;;
13743;SDS011;6943;52.368;9.966;2024-02-21T03:58:16;18.97;;;13.10;;
13743;SDS011;6943;52.368;9.966;2024-02-21T04:00:42;25.20;;;14.00;;
13743;SDS011;6943;52.368;9.966;2024-02-21T04:03:08;20.70;;;13.53;;
13743;SDS011;6943;52.368;9.966;2024-02-21T04:05:34;22.70;;;13.77;;
13743;SDS011;6943;52.368;9.966;2024-02-21T04:07:59;22.30;;;13.20;;
13743;SDS011;6943;52.368;9.966;2024-02-21T04:10:25;21.07;;;14.57;;
13743;SDS011;6943;52.368;9.966;2024-02-21T04:12:51;20.60;;;13.53;;
13743;SDS011;6943;52.368;9.966;2024-02-21T04:15:17;23.10;;;13.87;;
13743;SDS011;6943;52.368;9.966;2024-02-21T04:17:44;23.30;;;13.97;;
13743;SDS011;6943;52.368;9.966;2024-02-21T04:20:13;21.93;;;13.50;;
13743;SDS011;6943;52.368;9.966;2024-02-21T04:22:39;19.03;;;14.20;;
13743;SDS011;6943;52.368;9.966;2024-02-21T04:25:05;22.03;;;13.33;;
13743;SDS011;6943;52.368;9.966;2024-02-21T04:27:31;23.47;;;14.40;;
13743;SDS011;6943;52.368;9.966;2024-02-21T04:29:58;19.87;;;13.93;;
13743;SDS011;6943;52.368;9.966;2024-02-21T04:32:23;25.87;;;15.37;;
13743;SDS011;6943;52.368;9.966;2024-02-21T04:34:52;22.87;;;14.10;;
13743;SDS011;6943;52.368;9.966;2024-02-21T04:37:18;23.30;;;14.33;;
13743;SDS011;6943;52.368;9.966;2024-02-21T04:39:44;24.43;;;14.60;;
13743;SDS011;6943;52.368;9.966;2024-02-21T04:42:10;23.00;;;13.83;;
13743;SDS011;6943;52.368;9.966;2024-02-21T04:44:36;26.60;;;15.10;;
13743;SDS011;6943;52.368;9.966;2024-02-21T04:47:02;24.43;;;14.13;;
13743;SDS011;6943;52.368;9.966;2024-02-21T04:49:29;20.80;;;14.50;;
13743;SDS011;6943;52.368;9.966;2024-02-21T04:51:54;22.63;;;14.83;;
13743;SDS011;6943;52.368;9.966;2024-02-21T04:54:20;23.23;;;14.00;;
13743;SDS011;6943;52.368;9.966;2024-02-21T04:56:46;27.33;;;14.67;;
13743;SDS011;6943;52.368;9.966;2024-02-21T04:59:12;20.47;;;12.80;;
13743;SDS011;6943;52.368;9.966;2024-02-21T05:01:38;20.83;;;13.53;;
13743;SDS011;6943;52.368;9.966;2024-02-21T05:04:04;21.83;;;14.57;;
13743;SDS011;6943;52.368;9.966;2024-02-21T05:06:30;21.43;;;13.73;;
13743;SDS011;6943;52.368;9.966;2024-02-21T05:08:56;23.30;;;13.67;;
13743;SDS011;6943;52.368;9.966;2024-02-21T05:11:22;22.23;;;13.17;;
13743;SDS011;6943;52.368;9.966;2024-02-21T05:13:48;19.20;;;14.37;;
13743;SDS011;6943;52.368;9.966;2024-02-21T05:16:14;20.13;;;13.47;;
13743;SDS011;6943;52.368;9.966;2024-02-21T05:18:40;22.93;;;14.60;;
13743;SDS011;6943;52.368;9.966;2024-02-21T05:21:07;20.57;;;14.30;;
13743;SDS011;6943;52.368;9.966;2024-02-21T05:23:33;24.17;;;15.13;;
13743;SDS011;6943;52.368;9.966;2024-02-21T05:25:59;23.60;;;14.87;;
13743;SDS011;6943;52.368;9.966;2024-02-21T05:28:25;23.50;;;15.83;;
13743;SDS011;6943;52.368;9.966;2024-02-21T05:30:51;22.00;;;14.37;;
13743;SDS011;6943;52.368;9.966;2024-02-21T05:33:17;22.30;;;14.70;;
13743;SDS011;6943;52.368;9.966;2024-02-21T05:35:46;25.43;;;15.77;;
13743;SDS011;6943;52.368;9.966;2024-02-21T05:38:13;21.43;;;14.13;;
13743;SDS011;6943;52.368;9.966;2024-02-21T05:40:39;21.50;;;14.50;;
13743;SDS011;6943;52.368;9.966;2024-02-21T05:43:06;23.37;;;14.63;;
13743;SDS011;6943;52.368;9.966;2024-02-21T05:45:32;21.33;;;15.00;;
13743;SDS011;6943;52.368;9.966;2024-02-21T05:47:58;22.60;;;14.37;;
13743;SDS011;6943;52.368;9.966;2024-02-21T05:50:24;22.53;;;13.70;;
13743;SDS011;6943;52.368;9.966;2024-02-21T05:52:51;17.97;;;14.37;;
13743;SDS011;6943;52.368;9.966;2024-02-21T05:55:17;23.90;;;15.07;;
13743;SDS011;6943;52.368;9.966;2024-02-21T05:57:43;19.70;;;13.33;;
13743;SDS011;6943;52.368;9.966;2024-02-21T06:00:09;21.10;;;14.40;;
13743;SDS011;6943;52.368;9.966;2024-02-21T06:02:35;19.33;;;13.80;;
13743;SDS011;6943;52.368;9.966;2024-02-21T06:05:01;20.07;;;13.23;;
13743;SDS011;6943;52.368;9.966;2024-02-21T06:07:27;21.70;;;13.73;;
13743;SDS011;6943;52.368;9.966;2024-02-21T06:09:53;19.57;;;13.63;;
13743;SDS011;6943;52.368;9.966;2024-02-21T06:12:19;20.97;;;13.83;;
13743;SDS011;6943;52.368;9.966;2024-02-21T06:14:45;22.30;;;13.47;;
13743;SDS011;6943;52.368;9.966;2024-02-21T06:17:11;18.13;;;13.00;;
13743;SDS011;6943;52.368;9.966;2024-02-21T06:19:39;20.97;;;13.83;;
13743;SDS011;6943;52.368;9.966;2024-02-21T06:22:06;19.73;;;14.03;;
13743;SDS011;6943;52.368;9.966;2024-02-21T06:24:33;18.20;;;14.17;;
13743;SDS011;6943;52.368;9.966;2024-02-21T06:26:58;20.13;;;13.23;;
13743;SDS011;6943;52.368;9.966;2024-02-21T06:29:24;22.03;;;13.77;;
13743;SDS011;6943;52.368;9.966;2024-02-21T06:31:50;20.43;;;13.80;;
13743;SDS011;6943;52.368;9.966;2024-02-21T06:34:16;20.60;;;14.70;;
13743;SDS011;6943;52.368;9.966;2024-02-21T06:36:42;20.73;;;14.80;;
13743;SDS011;6943;52.368;9.966;2024-02-21T06:39:08;18.27;;;13.93;;
13743;SDS011;6943;52.368;9.966;2024-02-21T06:41:36;23.97;;;13.77;;
13743;SDS011;6943;52.368;9.966;2024-02-21T06:44:02;18.87;;;14.33;;
13743;SDS011;6943;52.368;9.966;2024-02-21T06:46:28;17.90;;;12.97;;
13743;SDS011;6943;52.368;9.966;2024-02-21T06:48:55;19.93;;;12.93;;
13743;SDS011;6943;52.368;9.966;2024-02-21T06:51:25;21.20;;;13.80;;
13743;SDS011;6943;52.368;9.966;2024-02-21T06:53:51;17.20;;;13.63;;
13743;SDS011;6943;52.368;9.966;2024-02-21T06:56:17;18.13;;;13.10;;
13743;SDS011;6943;52.368;9.966;2024-02-21T06:58:43;20.37;;;14.17;;
13743;SDS011;6943;52.368;9.966;2024-02-21T07:01:09;23.27;;;13.67;;
13743;SDS011;6943;52.368;9.966;2024-02-21T07:03:35;18.30;;;12.03;;
13743;SDS011;6943;52.368;9.966;2024-02-21T07:06:01;15.57;;;12.17;;
13743;SDS011;6943;52.368;9.966;2024-02-21T07:08:27;18.53;;;12.23;;
13743;SDS011;6943;52.368;9.966;2024-02-21T07:10:53;19.73;;;13.73;;
13743;SDS011;6943;52.368;9.966;2024-02-21T07:13:19;20.47;;;13.63;;
13743;SDS011;6943;52.368;9.966;2024-02-21T07:15:46;17.53;;;13.10;;
13743;SDS011;6943;52.368;9.966;2024-02-21T07:18:12;16.57;;;12.10;;
13743;SDS011;6943;52.368;9.966;2024-02-21T07:20:38;18.17;;;11.90;;
13743;SDS011;6943;52.368;9.966;2024-02-21T07:23:06;17.40;;;12.30;;
13743;SDS011;6943;52.368;9.966;2024-02-21T07:25:32;21.77;;;13.03;;
13743;SDS011;6943;52.368;9.966;2024-02-21T07:27:58;19.10;;;12.83;;
13743;SDS011;6943;52.368;9.966;2024-02-21T07:30:24;19.83;;;12.80;;
13743;SDS011;6943;52.368;9.966;2024-02-21T07:32:50;18.20;;;12.70;;
13743;SDS011;6943;52.368;9.966;2024-02-21T07:35:16;15.70;;;11.43;;
13743;SDS011;6943;52.368;9.966;2024-02-21T07:37:42;16.17;;;11.63;;
13743;SDS011;6943;52.368;9.966;2024-02-21T07:40:12;17.47;;;10.73;;
13743;SDS011;6943;52.368;9.966;2024-02-21T07:42:38;17.43;;;11.37;;
13743;SDS011;6943;52.368;9.966;2024-02-21T07:45:04;17.40;;;11.37;;
13743;SDS011;6943;52.368;9.966;2024-02-21T07:47:30;16.73;;;11.10;;
13743;SDS011;6943;52.368;9.966;2024-02-21T07:49:56;13.33;;;10.97;;
13743;SDS011;6943;52.368;9.966;2024-02-21T07:52:22;14.53;;;10.13;;
13743;SDS011;6943;52.368;9.966;2024-02-21T07:54:48;14.93;;;10.77;;
13743;SDS011;6943;52.368;9.966;2024-02-21T07:57:13;14.40;;;10.63;;
13743;SDS011;6943;52.368;9.966;2024-02-21T07:59:39;14.87;;;10.40;;
13743;SDS011;6943;52.368;9.966;2024-02-21T08:02:05;13.93;;;10.60;;
13743;SDS011;6943;52.368;9.966;2024-02-21T08:04:31;13.90;;;10.37;;
13743;SDS011;6943;52.368;9.966;2024-02-21T08:06:58;17.40;;;10.00;;
13743;SDS011;6943;52.368;9.966;2024-02-21T08:09:26;10.70;;;9.53;;
13743;SDS011;6943;52.368;9.966;2024-02-21T08:11:54;14.57;;;10.50;;
13743;SDS011;6943;52.368;9.966;2024-02-21T08:14:20;14.40;;;10.53;;
13743;SDS011;6943;52.368;9.966;2024-02-21T08:16:46;12.50;;;9.67;;
13743;SDS011;6943;52.368;9.966;2024-02-21T08:19:12;14.03;;;9.80;;
13743;SDS011;6943;52.368;9.966;2024-02-21T08:21:38;17.23;;;10.70;;
13743;SDS011;6943;52.368;9.966;2024-02-21T08:24:04;15.07;;;9.97;;
13743;SDS011;6943;52.368;9.966;2024-02-21T08:26:30;15.87;;;10.53;;
13743;SDS011;6943;52.368;9.966;2024-02-21T08:28:56;15.13;;;10.90;;
13743;SDS011;6943;52.368;9.966;2024-02-21T08:31:25;18.07;;;10.37;;
13743;SDS011;6943;52.368;9.966;2024-02-21T08:33:59;15.17;;;10.43;;
13743;SDS011;6943;52.368;9.966;2024-02-21T08:36:28;19.60;;;10.77;;
13743;SDS011;6943;52.368;9.966;2024-02-21T08:38:54;16.70;;;10.27;;
13743;SDS011;6943;52.368;9.966;2024-02-21T08:41:20;14.13;;;9.70;;
13743;SDS011;6943;52.368;9.966;2024-02-21T08:43:48;14.97;;;9.63;;
13743;SDS011;6943;52.368;9.966;2024-02-21T08:46:14;18.63;;;10.20;;
13743;SDS011;6943;52.368;9.966;2024-02-21T08:48:40;13.40;;;8.83;;
13743;SDS011;6943;52.368;9.966;2024-02-21T08:51:06;16.37;;;9.43;;
13743;SDS011;6943;52.368;9.966;2024-02-21T08:53:32;14.73;;;8.77;;
13743;SDS011;6943;52.368;9.966;2024-02-21T08:55:58;16.07;;;9.83;;
13743;SDS011;6943;52.368;9.966;2024-02-21T08:58:24;15.70;;;9.70;;
13743;SDS011;6943;52.368;9.966;2024-02-21T09:00:51;14.37;;;9.13;;
13743;SDS011;6943;52.368;9.966;2024-02-21T09:03:17;14.40;;;9.30;;
13743;SDS011;6943;52.368;9.966;2024-02-21T09:05:45;16.10;;;8.83;;
13743;SDS011;6943;52.368;9.966;2024-02-21T09:08:11;13.63;;;8.00;;
13743;SDS011;6943;52.368;9.966;2024-02-21T09:10:37;17.37;;;7.87;;
13743;SDS011;6943;52.368;9.966;2024-02-21T09:13:03;13.03;;;8.03;;
13743;SDS011;6943;52.368;9.966;2024-02-21T09:15:29;13.83;;;7.70;;
13743;SDS011;6943;52.368;9.966;2024-02-21T09:17:55;13.53;;;6.80;;
13743;SDS011;6943;52.368;9.966;2024-02-21T09:20:21;13.10;;;7.67;;
13743;SDS011;6943;52.368;9.966;2024-02-21T09:22:47;12.93;;;7.40;;
13743;SDS011;6943;52.368;9.966;2024-02-21T09:25:13;15.50;;;8.20;;
13743;SDS011;6943;52.368;9.966;2024-02-21T09:27:38;12.30;;;6.80;;
13743;SDS011;6943;52.368;9.966;2024-02-21T09:30:05;10.47;;;6.97;;
13743;SDS011;6943;52.368;9.966;2024-02-21T09:32:31;12.67;;;6.20;;
13743;SDS011;6943;52.368;9.966;2024-02-21T09:35:00;11.67;;;7.20;;
13743;SDS011;6943;52.368;9.966;2024-02-21T09:37:25;15.53;;;6.63;;
13743;SDS011;6943;52.368;9.966;2024-02-21T09:39:51;12.20;;;7.07;;
13743;SDS011;6943;52.368;9.966;2024-02-21T09:42:21;9.57;;;6.50;;
13743;SDS011;6943;52.368;9.966;2024-02-21T09:44:48;9.70;;;6.30;;
13743;SDS011;6943;52.368;9.966;2024-02-21T09:47:24;11.57;;;6.47;;
13743;SDS011;6943;52.368;9.966;2024-02-21T09:49:50;10.77;;;6.33;;
13743;SDS011;6943;52.368;9.966;2024-02-21T09:52:17;10.00;;;6.17;;
13743;SDS011;6943;52.368;9.966;2024-02-21T09:54:44;8.13;;;5.70;;
13743;SDS011;6943;52.368;9.966;2024-02-21T09:57:10;9.93;;;5.40;;
13743;SDS011;6943;52.368;9.966;2024-02-21T09:59:37;10.70;;;5.60;;
13743;SDS011;6943;52.368;9.966;2024-02-21T10:02:03;8.83;;;6.10;;
13743;SDS011;6943;52.368;9.966;2024-02-21T10:04:29;7.47;;;5.60;;
13743;SDS011;6943;52.368;9.966;2024-02-21T10:06:56;8.53;;;5.73;;
13743;SDS011;6943;52.368;9.966;2024-02-21T10:09:26;9.23;;;5.90;;
13743;SDS011;6943;52.368;9.966;2024-02-21T10:11:55;11.40;;;5.73;;
13743;SDS011;6943;52.368;9.966;2024-02-21T10:14:22;10.57;;;5.77;;
13743;SDS011;6943;52.368;9.966;2024-02-21T10:16:48;9.13;;;5.40;;
13743;SDS011;6943;52.368;9.966;2024-02-21T10:19:20;7.60;;;5.47;;
13743;SDS011;6943;52.368;9.966;2024-02-21T10:22:06;10.73;;;5.90;;
13743;SDS011;6943;52.368;9.966;2024-02-21T10:24:33;9.33;;;5.67;;
13743;SDS011;6943;52.368;9.966;2024-02-21T10:27:02;10.27;;;5.63;;
13743;SDS011;6943;52.368;9.966;2024-02-21T10:29:29;9.10;;;4.90;;
13743;SDS011;6943;52.368;9.966;2024-02-21T10:32:08;8.03;;;5.33;;
13743;SDS011;6943;52.368;9.966;2024-02-21T10:34:36;11.50;;;5.20;;
13743;SDS011;6943;52.368;9.966;2024-02-21T10:37:02;7.80;;;5.40;;
13743;SDS011;6943;52.368;9.966;2024-02-21T10:39:29;10.27;;;5.33;;
13743;SDS011;6943;52.368;9.966;2024-02-21T10:41:56;11.60;;;4.37;;
13743;SDS011;6943;52.368;9.966;2024-02-21T10:44:25;7.83;;;4.57;;
13743;SDS011;6943;52.368;9.966;2024-02-21T10:46:52;8.03;;;4.60;;
13743;SDS011;6943;52.368;9.966;2024-02-21T10:49:27;7.73;;;4.53;;
13743;SDS011;6943;52.368;9.966;2024-02-21T10:52:03;7.47;;;3.80;;
13743;SDS011;6943;52.368;9.966;2024-02-21T10:57:00;5.90;;;4.00;;
13743;SDS011;6943;52.368;9.966;2024-02-21T10:59:28;6.97;;;3.87;;
13743;SDS011;6943;52.368;9.966;2024-02-21T11:01:55;4.33;;;3.80;;
13743;SDS011;6943;52.368;9.966;2024-02-21T11:04:21;6.87;;;3.53;;
13743;SDS011;6943;52.368;9.966;2024-02-21T11:06:47;8.83;;;3.57;;
13743;SDS011;6943;52.368;9.966;2024-02-21T11:09:13;7.27;;;3.30;;
13743;SDS011;6943;52.368;9.966;2024-02-21T11:11:39;8.80;;;3.23;;
13743;SDS011;6943;52.368;9.966;2024-02-21T11:16:35;6.03;;;3.30;;
13743;SDS011;6943;52.368;9.966;2024-02-21T11:19:09;5.53;;;2.50;;
13743;SDS011;6943;52.368;9.966;2024-02-21T11:21:36;6.27;;;2.77;;
13743;SDS011;6943;52.368;9.966;2024-02-21T11:24:05;5.73;;;2.70;;
13743;SDS011;6943;52.368;9.966;2024-02-21T11:26:32;4.13;;;2.40;;
13743;SDS011;6943;52.368;9.966;2024-02-21T11:28:58;4.90;;;2.50;;
13743;SDS011;6943;52.368;9.966;2024-02-21T11:31:25;6.37;;;2.80;;
13743;SDS011;6943;52.368;9.966;2024-02-21T11:33:54;5.77;;;2.63;;
13743;SDS011;6943;52.368;9.966;2024-02-21T11:36:24;5.93;;;2.57;;
13743;SDS011;6943;52.368;9.966;2024-02-21T11:38:51;3.77;;;2.60;;
13743;SDS011;6943;52.368;9.966;2024-02-21T11:41:18;3.97;;;2.60;;
13743;SDS011;6943;52.368;9.966;2024-02-21T11:43:45;3.60;;;2.03;;
13743;SDS011;6943;52.368;9.966;2024-02-21T11:46:11;5.43;;;2.43;;
13743;SDS011;6943;52.368;9.966;2024-02-21T11:48:37;4.50;;;2.20;;
13743;SDS011;6943;52.368;9.966;2024-02-21T11:51:03;4.77;;;2.23;;
13743;SDS011;6943;52.368;9.966;2024-02-21T11:53:30;4.97;;;2.40;;
13743;SDS011;6943;52.368;9.966;2024-02-21T11:55:58;4.57;;;2.30;;
13743;SDS011;6943;52.368;9.966;2024-02-21T11:58:24;3.77;;;2.27;;
13743;SDS011;6943;52.368;9.966;2024-02-21T12:00:51;4.40;;;2.57;;
13743;SDS011;6943;52.368;9.966;2024-02-21T12:03:17;6.13;;;2.50;;
13743;SDS011;6943;52.368;9.966;2024-02-21T12:05:43;4.60;;;2.53;;
13743;SDS011;6943;52.368;9.966;2024-02-21T12:08:11;5.57;;;2.37;;
13743;SDS011;6943;52.368;9.966;2024-02-21T12:10:37;5.63;;;2.93;;
13743;SDS011;6943;52.368;9.966;2024-02-21T12:13:07;4.33;;;2.50;;
13743;SDS011;6943;52.368;9.966;2024-02-21T12:15:33;8.00;;;2.70;;
13743;SDS011;6943;52.368;9.966;2024-02-21T12:17:59;7.67;;;2.63;;
13743;SDS011;6943;52.368;9.966;2024-02-21T12:20:25;5.07;;;2.73;;
13743;SDS011;6943;52.368;9.966;2024-02-21T12:22:51;5.80;;;2.60;;
13743;SDS011;6943;52.368;9.966;2024-02-21T12:25:19;3.53;;;2.97;;
13743;SDS011;6943;52.368;9.966;2024-02-21T12:27:47;5.60;;;3.00;;
13743;SDS011;6943;52.368;9.966;2024-02-21T12:30:14;4.97;;;3.27;;
13743;SDS011;6943;52.368;9.966;2024-02-21T12:32:40;4.97;;;3.30;;
13743;SDS011;6943;52.368;9.966;2024-02-21T12:35:09;5.80;;;3.00;;
13743;SDS011;6943;52.368;9.966;2024-02-21T12:37:35;6.43;;;3.13;;
13743;SDS011;6943;52.368;9.966;2024-02-21T12:40:01;5.47;;;3.57;;
13743;SDS011;6943;52.368;9.966;2024-02-21T12:42:31;8.63;;;4.23;;
13743;SDS011;6943;52.368;9.966;2024-02-21T12:44:58;4.97;;;3.63;;
13743;SDS011;6943;52.368;9.966;2024-02-21T12:47:24;6.20;;;3.50;;
13743;SDS011;6943;52.368;9.966;2024-02-21T12:49:51;5.87;;;4.03;;
13743;SDS011;6943;52.368;9.966;2024-02-21T12:52:17;6.10;;;4.60;;
13743;SDS011;6943;52.368;9.966;2024-02-21T12:54:43;7.23;;;5.30;;
13743;SDS011;6943;52.368;9.966;2024-02-21T12:57:09;7.00;;;4.33;;
13743;SDS011;6943;52.368;9.966;2024-02-21T12:59:35;6.70;;;4.80;;
13743;SDS011;6943;52.368;9.966;2024-02-21T13:02:01;7.33;;;4.77;;
13743;SDS011;6943;52.368;9.966;2024-02-21T13:04:27;8.87;;;5.20;;
13743;SDS011;6943;52.368;9.966;2024-02-21T13:06:53;6.60;;;4.97;;
13743;SDS011;6943;52.368;9.966;2024-02-21T13:09:20;8.23;;;4.93;;
13743;SDS011;6943;52.368;9.966;2024-02-21T13:11:46;6.50;;;4.93;;
13743;SDS011;6943;52.368;9.966;2024-02-21T13:14:13;9.30;;;5.70;;
13743;SDS011;6943;52.368;9.966;2024-02-21T13:16:38;7.57;;;5.47;;
13743;SDS011;6943;52.368;9.966;2024-02-21T13:19:05;9.57;;;5.53;;
13743;SDS011;6943;52.368;9.966;2024-02-21T13:21:31;10.20;;;6.37;;
13743;SDS011;6943;52.368;9.966;2024-02-21T13:23:57;8.90;;;6.37;;
13743;SDS011;6943;52.368;9.966;2024-02-21T13:26:23;9.77;;;6.17;;
13743;SDS011;6943;52.368;9.966;2024-02-21T13:28:49;9.73;;;6.17;;
13743;SDS011;6943;52.368;9.966;2024-02-21T13:31:15;9.10;;;6.37;;
13743;SDS011;6943;52.368;9.966;2024-02-21T13:33:41;10.97;;;7.17;;
13743;SDS011;6943;52.368;9.966;2024-02-21T13:36:07;8.90;;;6.83;;
13743;SDS011;6943;52.368;9.966;2024-02-21T13:38:33;10.70;;;7.27;;
13743;SDS011;6943;52.368;9.966;2024-02-21T13:40:59;11.13;;;7.23;;
13743;SDS011;6943;52.368;9.966;2024-02-21T13:43:25;9.33;;;7.03;;
13743;SDS011;6943;52.368;9.966;2024-02-21T13:45:57;9.37;;;6.20;;
13743;SDS011;6943;52.368;9.966;2024-02-21T13:48:23;8.23;;;5.87;;
13743;SDS011;6943;52.368;9.966;2024-02-21T13:50:50;7.70;;;5.93;;
13743;SDS011;6943;52.368;9.966;2024-02-21T13:53:16;6.77;;;5.50;;
13743;SDS011;6943;52.368;9.966;2024-02-21T13:55:45;7.77;;;6.07;;
13743;SDS011;6943;52.368;9.966;2024-02-21T13:58:11;10.73;;;6.43;;
13743;SDS011;6943;52.368;9.966;2024-02-21T14:00:37;9.23;;;5.67;;
13743;SDS011;6943;52.368;9.966;2024-02-21T14:03:03;8.77;;;5.33;;
13743;SDS011;6943;52.368;9.966;2024-02-21T14:05:29;10.27;;;5.40;;
13743;SDS011;6943;52.368;9.966;2024-02-21T14:07:55;8.57;;;4.83;;
13743;SDS011;6943;52.368;9.966;2024-02-21T14:10:21;7.73;;;5.10;;
13743;SDS011;6943;52.368;9.966;2024-02-21T14:12:47;7.77;;;4.80;;
13743;SDS011;6943;52.368;9.966;2024-02-21T14:15:14;8.50;;;5.07;;
13743;SDS011;6943;52.368;9.966;2024-02-21T14:17:41;8.10;;;4.60;;
13743;SDS011;6943;52.368;9.966;2024-02-21T14:20:07;8.77;;;4.40;;
13743;SDS011;6943;52.368;9.966;2024-02-21T14:22:33;7.63;;;3.30;;
13743;SDS011;6943;52.368;9.966;2024-02-21T14:24:59;5.33;;;3.53;;
13743;SDS011;6943;52.368;9.966;2024-02-21T14:27:25;7.03;;;3.67;;
13743;SDS011;6943;52.368;9.966;2024-02-21T14:29:51;4.60;;;2.83;;
13743;SDS011;6943;52.368;9.966;2024-02-21T14:32:18;8.50;;;3.37;;
13743;SDS011;6943;52.368;9.966;2024-02-21T14:34:45;5.60;;;3.23;;
13743;SDS011;6943;52.368;9.966;2024-02-21T14:37:11;6.47;;;3.20;;
13743;SDS011;6943;52.368;9.966;2024-02-21T14:39:37;7.93;;;3.27;;
13743;SDS011;6943;52.368;9.966;2024-02-21T14:42:03;7.33;;;3.40;;
13743;SDS011;6943;52.368;9.966;2024-02-21T14:44:29;5.23;;;3.13;;